Minato Maru No.27 — JD3989 — position and weather

sailwx.info

Track history (hours):
 
Tides and Currents Weather Stations Pressure Air Temp Water Temp Dewpoint Dewpoint Depression Visibility Wind Speed Wind Dir Waves Ship Positions

Minato Maru No.27

Last reported at 2017-Dec-15 07:58 UTC. Time now 2017-Dec-15 16:04 UTC.
Position N 34°39' E 135°26'.

Length 30 m.

Type: Tanker. MMSI: 431007464.

Date/timePositionNaut miles runAvg speedWind from/ knotsBaromVisibWave heightAir tempDewpointWater temp
2017-Dec-15 07:58N 34°39' E 135°26'3 6.8
2017-Dec-15 07:30N 34°37' E 135°23'510.8
2017-Dec-15 07:00N 34°32' E 135°24'1 2.2
2017-Dec-15 06:29N 34°31' E 135°24'0 0.0
2017-Dec-15 05:59N 34°31' E 135°24'1 2.1
2017-Dec-15 05:30N 34°32' E 135°24'4 8.1
2017-Dec-15 05:00N 34°36' E 135°25'2 3.0
2017-Dec-15 04:28N 34°34' E 135°26'2 4.3
2017-Dec-15 04:00N 34°36' E 135°25'3 2.2
2017-Dec-15 02:30N 34°39' E 135°28'1 0.6
2017-Dec-15 01:00N 34°39' E 135°29'2 3.9
2017-Dec-15 00:30N 34°39' E 135°26'1 0.0
2017-Dec-14 07:52N 34°39' E 135°26'0 0.0
2017-Dec-14 07:28N 34°39' E 135°26'0 0.0
2017-Dec-14 06:58N 34°39' E 135°26'0 0.0
2017-Dec-14 06:28N 34°39' E 135°26'0 0.0
2017-Dec-14 05:58N 34°39' E 135°26'0 0.0
2017-Dec-14 05:28N 34°39' E 135°26'0 0.0
2017-Dec-14 04:58N 34°39' E 135°26'0 0.0
2017-Dec-14 04:28N 34°39' E 135°26'0 0.0
2017-Dec-14 03:58N 34°39' E 135°26'0 0.0
2017-Dec-14 03:28N 34°39' E 135°26'0 0.0
2017-Dec-14 02:58N 34°39' E 135°26'0 0.0
2017-Dec-14 02:28N 34°39' E 135°26'0 0.0
2017-Dec-14 01:58N 34°39' E 135°26'0 0.0
2017-Dec-14 01:28N 34°39' E 135°26'0 0.0
2017-Dec-14 00:58N 34°39' E 135°26'0 0.0
2017-Dec-14 00:28N 34°39' E 135°26'0 0.0
2017-Dec-13 23:58N 34°39' E 135°26'0 0.0
2017-Dec-13 23:28N 34°39' E 135°26'0 0.0
2017-Dec-13 07:29N 34°39' E 135°26'0 0.0
2017-Dec-13 06:59N 34°39' E 135°26'0 0.0
2017-Dec-13 06:29N 34°39' E 135°26'0 0.0
2017-Dec-13 05:59N 34°39' E 135°26'0 0.0
2017-Dec-13 05:29N 34°39' E 135°26'0 0.0
2017-Dec-13 04:59N 34°39' E 135°26'0 0.9
2017-Dec-13 04:30N 34°39' E 135°26'3 6.6
2017-Dec-13 04:01N 34°36' E 135°25'2 3.6
2017-Dec-13 03:30N 34°34' E 135°26'0 0.4
2017-Dec-13 02:59N 34°34' E 135°25'1 1.3
2017-Dec-13 02:31N 34°35' E 135°25'1 3.0
2017-Dec-13 02:00N 34°33' E 135°25'2 2.8
2017-Dec-13 01:28N 34°33' E 135°27'0 0.0
2017-Dec-13 00:58N 34°33' E 135°27'3 5.8
2017-Dec-13 00:30N 34°35' E 135°24'4 8.4
2017-Dec-13 00:01N 34°38' E 135°27'1 1.7
2017-Dec-12 23:29N 34°39' E 135°26'1 1.7
2017-Dec-12 23:01N 34°39' E 135°26'0 0.0
2017-Dec-12 07:44N 34°39' E 135°26'0 0.0
2017-Dec-12 07:29N 34°39' E 135°26'0 0.0
2017-Dec-12 06:59N 34°39' E 135°26'0 0.0
2017-Dec-12 06:29N 34°39' E 135°26'0 0.0
2017-Dec-12 05:59N 34°39' E 135°26'0 0.0
2017-Dec-12 05:29N 34°39' E 135°26'0 0.0
2017-Dec-12 04:59N 34°39' E 135°26'0 0.0
2017-Dec-12 04:29N 34°39' E 135°26'0 0.0
2017-Dec-12 03:59N 34°39' E 135°26'0 0.0
2017-Dec-12 03:29N 34°39' E 135°26'0 0.0
2017-Dec-12 02:59N 34°39' E 135°26'0 0.0
2017-Dec-12 02:29N 34°39' E 135°26'0 0.0
2017-Dec-12 01:59N 34°39' E 135°26'0 0.0
2017-Dec-12 01:26N 34°39' E 135°26'0 0.0
2017-Dec-12 00:59N 34°39' E 135°26'0 0.0
2017-Dec-12 00:29N 34°39' E 135°26'0 0.0
2017-Dec-11 23:53N 34°39' E 135°26'0 0.0
2017-Dec-11 23:29N 34°39' E 135°26'0 0.0
2017-Dec-11 22:59N 34°39' E 135°26'0 0.0
2017-Dec-11 07:30N 34°39' E 135°26'0 0.0
2017-Dec-11 07:00N 34°39' E 135°26'0 0.0
2017-Dec-11 06:30N 34°39' E 135°26'0 0.0
2017-Dec-11 06:00N 34°39' E 135°26'0 0.0
2017-Dec-11 05:30N 34°39' E 135°26'0 0.8
2017-Dec-11 05:00N 34°40' E 135°26'2 3.2
2017-Dec-11 04:30N 34°38' E 135°27'4 7.9
2017-Dec-11 04:00N 34°34' E 135°26'0 0.1
2017-Dec-11 03:25N 34°34' E 135°26'0 0.6
2017-Dec-11 02:58N 34°34' E 135°25'1 3.2
2017-Dec-11 02:30N 34°36' E 135°25'4 8.8
2017-Dec-11 02:00N 34°32' E 135°23'1 1.8
2017-Dec-11 01:28N 34°31' E 135°24'4 7.9
2017-Dec-11 01:00N 34°34' E 135°23'5 9.5
2017-Dec-11 00:30N 34°39' E 135°25'1 2.5
2017-Dec-10 23:59N 34°39' E 135°26'0 0.0
2017-Dec-09 07:37N 34°39' E 135°26'0 0.0
2017-Dec-09 07:29N 34°39' E 135°26'0 0.0
2017-Dec-09 06:58N 34°39' E 135°26'0 0.0
2017-Dec-09 06:28N 34°39' E 135°26'0 0.0
2017-Dec-09 05:58N 34°39' E 135°26'0 0.0
2017-Dec-09 05:28N 34°39' E 135°26'0 0.0
2017-Dec-09 04:58N 34°39' E 135°26'0 0.0
2017-Dec-09 04:28N 34°39' E 135°26'0 0.0
2017-Dec-09 03:58N 34°39' E 135°26'0 0.0
2017-Dec-09 03:28N 34°39' E 135°26'0 0.0
2017-Dec-09 02:58N 34°39' E 135°26'0 0.0
2017-Dec-09 02:28N 34°39' E 135°26'0 0.0
2017-Dec-09 01:58N 34°39' E 135°26'0 0.0
2017-Dec-09 01:28N 34°39' E 135°26'0 0.0
2017-Dec-09 00:58N 34°39' E 135°26'0 0.0
2017-Dec-09 00:29N 34°39' E 135°26'0 0.0
2017-Dec-08 23:58N 34°39' E 135°26'0 0.0
2017-Dec-08 23:28N 34°39' E 135°26'0 0.0
2017-Dec-08 07:45N 34°39' E 135°26'0 0.4
2017-Dec-08 07:30N 34°39' E 135°26'0 0.9
2017-Dec-08 06:59N 34°40' E 135°27'0 0.7
2017-Dec-08 06:30N 34°40' E 135°26'2 4.9
2017-Dec-08 06:00N 34°37' E 135°25'2 3.1
2017-Dec-08 05:30N 34°36' E 135°25'3 6.3
2017-Dec-08 04:58N 34°39' E 135°27'0 0.5
2017-Dec-08 04:30N 34°39' E 135°27'1 1.8
2017-Dec-08 03:59N 34°39' E 135°28'3 6.3
2017-Dec-08 03:30N 34°36' E 135°25'1 2.5
2017-Dec-08 03:00N 34°35' E 135°25'1 1.7
2017-Dec-08 02:28N 34°34' E 135°26'0 0.6
2017-Dec-08 02:00N 34°35' E 135°25'0 0.3
2017-Dec-08 01:30N 34°34' E 135°25'0 0.6
2017-Dec-08 00:58N 34°34' E 135°26'0 0.5
2017-Dec-08 00:29N 34°34' E 135°25'0 0.8
2017-Dec-07 23:58N 34°35' E 135°25'2 4.7
2017-Dec-07 23:30N 34°37' E 135°25'2 4.6
2017-Dec-07 22:58N 34°39' E 135°26'0 0.0
2017-Dec-07 06:54N 34°39' E 135°26'0 0.0
2017-Dec-07 06:30N 34°39' E 135°26'0 0.0
2017-Dec-07 06:00N 34°39' E 135°26'0 0.0
2017-Dec-07 05:30N 34°39' E 135°26'0 0.0
2017-Dec-07 05:00N 34°39' E 135°26'0 0.0
2017-Dec-07 04:27N 34°39' E 135°26'0 0.0
2017-Dec-07 04:00N 34°39' E 135°26'0 0.0
2017-Dec-07 03:30N 34°39' E 135°26'0 0.0
2017-Dec-07 03:00N 34°39' E 135°26'0 0.0
2017-Dec-07 02:30N 34°39' E 135°26'0 0.0
2017-Dec-07 02:00N 34°39' E 135°26'0 0.0
2017-Dec-07 01:30N 34°39' E 135°26'0 0.0
2017-Dec-07 01:00N 34°39' E 135°26'0 0.0
2017-Dec-07 00:30N 34°39' E 135°26'0 0.0
2017-Dec-07 00:00N 34°39' E 135°26'0 0.0
2017-Dec-06 23:30N 34°39' E 135°26'  
Track history (hours):
 
Tides and Currents Weather Stations Pressure Air Temp Water Temp Dewpoint Dewpoint Depression Visibility Wind Speed Wind Dir Waves Ship Positions

Minato Maru No.27

Last reported at 2017-Dec-15 07:58 UTC. Time now 2017-Dec-15 16:04 UTC.
Position N 34°39' E 135°26'.

Length 30 m.

Type: Tanker. MMSI: 431007464.

Date/timePositionNaut miles runAvg speedWind from/ knotsBaromVisibWave heightAir tempDewpointWater temp
2017-Dec-15 07:58N 34°39' E 135°26'3 6.8
2017-Dec-15 07:30N 34°37' E 135°23'510.8
2017-Dec-15 07:00N 34°32' E 135°24'1 2.2
2017-Dec-15 06:29N 34°31' E 135°24'0 0.0
2017-Dec-15 05:59N 34°31' E 135°24'1 2.1
2017-Dec-15 05:30N 34°32' E 135°24'4 8.1
2017-Dec-15 05:00N 34°36' E 135°25'2 3.0
2017-Dec-15 04:28N 34°34' E 135°26'2 4.3
2017-Dec-15 04:00N 34°36' E 135°25'3 2.2
2017-Dec-15 02:30N 34°39' E 135°28'1 0.6
2017-Dec-15 01:00N 34°39' E 135°29'2 3.9
2017-Dec-15 00:30N 34°39' E 135°26'1 0.0
2017-Dec-14 07:52N 34°39' E 135°26'0 0.0
2017-Dec-14 07:28N 34°39' E 135°26'0 0.0
2017-Dec-14 06:58N 34°39' E 135°26'0 0.0
2017-Dec-14 06:28N 34°39' E 135°26'0 0.0
2017-Dec-14 05:58N 34°39' E 135°26'0 0.0
2017-Dec-14 05:28N 34°39' E 135°26'0 0.0
2017-Dec-14 04:58N 34°39' E 135°26'0 0.0
2017-Dec-14 04:28N 34°39' E 135°26'0 0.0
2017-Dec-14 03:58N 34°39' E 135°26'0 0.0
2017-Dec-14 03:28N 34°39' E 135°26'0 0.0
2017-Dec-14 02:58N 34°39' E 135°26'0 0.0
2017-Dec-14 02:28N 34°39' E 135°26'0 0.0
2017-Dec-14 01:58N 34°39' E 135°26'0 0.0
2017-Dec-14 01:28N 34°39' E 135°26'0 0.0
2017-Dec-14 00:58N 34°39' E 135°26'0 0.0
2017-Dec-14 00:28N 34°39' E 135°26'0 0.0
2017-Dec-13 23:58N 34°39' E 135°26'0 0.0
2017-Dec-13 23:28N 34°39' E 135°26'0 0.0
2017-Dec-13 07:29N 34°39' E 135°26'0 0.0
2017-Dec-13 06:59N 34°39' E 135°26'0 0.0
2017-Dec-13 06:29N 34°39' E 135°26'0 0.0
2017-Dec-13 05:59N 34°39' E 135°26'0 0.0
2017-Dec-13 05:29N 34°39' E 135°26'0 0.0
2017-Dec-13 04:59N 34°39' E 135°26'0 0.9
2017-Dec-13 04:30N 34°39' E 135°26'3 6.6
2017-Dec-13 04:01N 34°36' E 135°25'2 3.6
2017-Dec-13 03:30N 34°34' E 135°26'0 0.4
2017-Dec-13 02:59N 34°34' E 135°25'1 1.3
2017-Dec-13 02:31N 34°35' E 135°25'1 3.0
2017-Dec-13 02:00N 34°33' E 135°25'2 2.8
2017-Dec-13 01:28N 34°33' E 135°27'0 0.0
2017-Dec-13 00:58N 34°33' E 135°27'3 5.8
2017-Dec-13 00:30N 34°35' E 135°24'4 8.4
2017-Dec-13 00:01N 34°38' E 135°27'1 1.7
2017-Dec-12 23:29N 34°39' E 135°26'1 1.7
2017-Dec-12 23:01N 34°39' E 135°26'0 0.0
2017-Dec-12 07:44N 34°39' E 135°26'0 0.0
2017-Dec-12 07:29N 34°39' E 135°26'0 0.0
2017-Dec-12 06:59N 34°39' E 135°26'0 0.0
2017-Dec-12 06:29N 34°39' E 135°26'0 0.0
2017-Dec-12 05:59N 34°39' E 135°26'0 0.0
2017-Dec-12 05:29N 34°39' E 135°26'0 0.0
2017-Dec-12 04:59N 34°39' E 135°26'0 0.0
2017-Dec-12 04:29N 34°39' E 135°26'0 0.0
2017-Dec-12 03:59N 34°39' E 135°26'0 0.0
2017-Dec-12 03:29N 34°39' E 135°26'0 0.0
2017-Dec-12 02:59N 34°39' E 135°26'0 0.0
2017-Dec-12 02:29N 34°39' E 135°26'0 0.0
2017-Dec-12 01:59N 34°39' E 135°26'0 0.0
2017-Dec-12 01:26N 34°39' E 135°26'0 0.0
2017-Dec-12 00:59N 34°39' E 135°26'0 0.0
2017-Dec-12 00:29N 34°39' E 135°26'0 0.0
2017-Dec-11 23:53N 34°39' E 135°26'0 0.0
2017-Dec-11 23:29N 34°39' E 135°26'0 0.0
2017-Dec-11 22:59N 34°39' E 135°26'0 0.0
2017-Dec-11 07:30N 34°39' E 135°26'0 0.0
2017-Dec-11 07:00N 34°39' E 135°26'0 0.0
2017-Dec-11 06:30N 34°39' E 135°26'0 0.0
2017-Dec-11 06:00N 34°39' E 135°26'0 0.0
2017-Dec-11 05:30N 34°39' E 135°26'0 0.8
2017-Dec-11 05:00N 34°40' E 135°26'2 3.2
2017-Dec-11 04:30N 34°38' E 135°27'4 7.9
2017-Dec-11 04:00N 34°34' E 135°26'0 0.1
2017-Dec-11 03:25N 34°34' E 135°26'0 0.6
2017-Dec-11 02:58N 34°34' E 135°25'1 3.2
2017-Dec-11 02:30N 34°36' E 135°25'4 8.8
2017-Dec-11 02:00N 34°32' E 135°23'1 1.8
2017-Dec-11 01:28N 34°31' E 135°24'4 7.9
2017-Dec-11 01:00N 34°34' E 135°23'5 9.5
2017-Dec-11 00:30N 34°39' E 135°25'1 2.5
2017-Dec-10 23:59N 34°39' E 135°26'0 0.0
2017-Dec-09 07:37N 34°39' E 135°26'0 0.0
2017-Dec-09 07:29N 34°39' E 135°26'0 0.0
2017-Dec-09 06:58N 34°39' E 135°26'0 0.0
2017-Dec-09 06:28N 34°39' E 135°26'0 0.0
2017-Dec-09 05:58N 34°39' E 135°26'0 0.0
2017-Dec-09 05:28N 34°39' E 135°26'0 0.0
2017-Dec-09 04:58N 34°39' E 135°26'0 0.0
2017-Dec-09 04:28N 34°39' E 135°26'0 0.0
2017-Dec-09 03:58N 34°39' E 135°26'0 0.0
2017-Dec-09 03:28N 34°39' E 135°26'0 0.0
2017-Dec-09 02:58N 34°39' E 135°26'0 0.0
2017-Dec-09 02:28N 34°39' E 135°26'0 0.0
2017-Dec-09 01:58N 34°39' E 135°26'0 0.0
2017-Dec-09 01:28N 34°39' E 135°26'0 0.0
2017-Dec-09 00:58N 34°39' E 135°26'0 0.0
2017-Dec-09 00:29N 34°39' E 135°26'0 0.0
2017-Dec-08 23:58N 34°39' E 135°26'0 0.0
2017-Dec-08 23:28N 34°39' E 135°26'0 0.0
2017-Dec-08 07:45N 34°39' E 135°26'0 0.4
2017-Dec-08 07:30N 34°39' E 135°26'0 0.9
2017-Dec-08 06:59N 34°40' E 135°27'0 0.7
2017-Dec-08 06:30N 34°40' E 135°26'2 4.9
2017-Dec-08 06:00N 34°37' E 135°25'2 3.1
2017-Dec-08 05:30N 34°36' E 135°25'3 6.3
2017-Dec-08 04:58N 34°39' E 135°27'0 0.5
2017-Dec-08 04:30N 34°39' E 135°27'1 1.8
2017-Dec-08 03:59N 34°39' E 135°28'3 6.3
2017-Dec-08 03:30N 34°36' E 135°25'1 2.5
2017-Dec-08 03:00N 34°35' E 135°25'1 1.7
2017-Dec-08 02:28N 34°34' E 135°26'0 0.6
2017-Dec-08 02:00N 34°35' E 135°25'0 0.3
2017-Dec-08 01:30N 34°34' E 135°25'0 0.6
2017-Dec-08 00:58N 34°34' E 135°26'0 0.5
2017-Dec-08 00:29N 34°34' E 135°25'0 0.8
2017-Dec-07 23:58N 34°35' E 135°25'2 4.7
2017-Dec-07 23:30N 34°37' E 135°25'2 4.6
2017-Dec-07 22:58N 34°39' E 135°26'0 0.0
2017-Dec-07 06:54N 34°39' E 135°26'0 0.0
2017-Dec-07 06:30N 34°39' E 135°26'0 0.0
2017-Dec-07 06:00N 34°39' E 135°26'0 0.0
2017-Dec-07 05:30N 34°39' E 135°26'0 0.0
2017-Dec-07 05:00N 34°39' E 135°26'0 0.0
2017-Dec-07 04:27N 34°39' E 135°26'0 0.0
2017-Dec-07 04:00N 34°39' E 135°26'0 0.0
2017-Dec-07 03:30N 34°39' E 135°26'0 0.0
2017-Dec-07 03:00N 34°39' E 135°26'0 0.0
2017-Dec-07 02:30N 34°39' E 135°26'0 0.0
2017-Dec-07 02:00N 34°39' E 135°26'0 0.0
2017-Dec-07 01:30N 34°39' E 135°26'0 0.0
2017-Dec-07 01:00N 34°39' E 135°26'0 0.0
2017-Dec-07 00:30N 34°39' E 135°26'0 0.0
2017-Dec-07 00:00N 34°39' E 135°26'0 0.0
2017-Dec-06 23:30N 34°39' E 135°26'  

Dump ship's entire track history